Time;durP1;ratioP1;P1;durP2;ratioP2;P2;SDS_P1;SDS_P2;PMS_P1;PMS_P2;Temp;Humidity;BMP_temperature;BMP_pressure;BME280_temperature;BME280_humidity;BME280_pressure;Samples;Min_cycle;Max_cycle;Signal;HPM_P1;HPM_P2
2023/02/17 00:00:03;;;;;;;5.72;3.00;;;;;;;;;;5115472;28;20038;-39
2023/02/17 00:02:29;;;;;;;5.68;3.72;;;;;;;;;;5115400;28;20058;-40
2023/02/17 00:04:55;;;;;;;6.30;3.40;;;;;;;;;;5115413;28;20102;-39
2023/02/17 00:07:21;;;;;;;4.80;2.80;;;;;;;;;;5115231;28;20523;-32
2023/02/17 00:09:47;;;;;;;4.75;2.80;;;;;;;;;;5115436;28;20489;-33
2023/02/17 00:12:13;;;;;;;5.45;3.15;;;;;;;;;;5115389;28;20028;-32
2023/02/17 00:14:39;;;;;;;4.35;2.65;;;;;;;;;;5115437;28;20024;-35
2023/02/17 00:17:05;;;;;;;3.75;2.53;;;;;;;;;;5114882;28;20024;-32
2023/02/17 00:19:32;;;;;;;6.32;3.20;;;;;;;;;;5113758;28;20039;-32
2023/02/17 00:21:59;;;;;;;5.55;3.10;;;;;;;;;;5115285;28;20030;-32
2023/02/17 00:24:26;;;;;;;7.05;3.38;;;;;;;;;;5115176;27;20110;-37
2023/02/17 00:26:52;;;;;;;3.60;2.42;;;;;;;;;;5114837;28;20020;-35
2023/02/17 00:29:18;;;;;;;4.85;2.83;;;;;;;;;;5115155;28;20389;-32
2023/02/17 00:31:45;;;;;;;4.93;2.97;;;;;;;;;;5114798;28;20042;-35
2023/02/17 00:34:11;;;;;;;4.88;2.80;;;;;;;;;;5114812;28;20034;-34
2023/02/17 00:36:38;;;;;;;4.85;2.83;;;;;;;;;;5114711;28;20055;-36
2023/02/17 00:39:04;;;;;;;5.90;3.05;;;;;;;;;;5115118;28;20016;-37
2023/02/17 00:41:31;;;;;;;4.88;3.10;;;;;;;;;;5114886;28;20019;-38
2023/02/17 00:43:57;;;;;;;4.63;2.70;;;;;;;;;;5114677;28;20023;-39
2023/02/17 00:46:23;;;;;;;5.70;2.75;;;;;;;;;;5114194;28;20020;-39
2023/02/17 00:48:49;;;;;;;6.80;3.40;;;;;;;;;;5113187;28;20085;-39
2023/02/17 00:51:16;;;;;;;5.25;3.05;;;;;;;;;;5114713;28;20024;-39
2023/02/17 00:53:42;;;;;;;3.67;2.60;;;;;;;;;;5114531;27;20081;-37
2023/02/17 00:56:08;;;;;;;4.18;2.67;;;;;;;;;;5112872;28;20068;-36
2023/02/17 00:58:35;;;;;;;5.75;2.63;;;;;;;;;;5114353;27;20027;-38
2023/02/17 01:01:01;;;;;;;4.05;2.72;;;;;;;;;;5114162;27;20514;-38
2023/02/17 01:03:27;;;;;;;5.55;2.70;;;;;;;;;;5114379;28;20027;-37
2023/02/17 01:05:54;;;;;;;4.75;3.00;;;;;;;;;;5112826;28;20504;-33
2023/02/17 01:08:20;;;;;;;4.82;2.70;;;;;;;;;;5114388;28;20153;-37
2023/02/17 01:10:47;;;;;;;3.70;2.53;;;;;;;;;;5114061;28;20020;-33
2023/02/17 01:13:14;;;;;;;4.35;2.55;;;;;;;;;;5114043;28;20020;-34
2023/02/17 01:15:44;;;;;;;4.90;2.95;;;;;;;;;;5113962;28;20103;-32
2023/02/17 01:18:10;;;;;;;6.05;2.90;;;;;;;;;;5114085;28;20027;-36
2023/02/17 01:20:37;;;;;;;3.47;2.60;;;;;;;;;;5114117;28;20035;-37
2023/02/17 01:23:04;;;;;;;4.80;2.80;;;;;;;;;;5112680;28;20506;-33
2023/02/17 01:25:31;;;;;;;3.92;2.88;;;;;;;;;;5114212;28;20031;-35
2023/02/17 01:27:57;;;;;;;3.17;2.45;;;;;;;;;;5113675;28;20389;-37
2023/02/17 01:30:23;;;;;;;6.00;2.72;;;;;;;;;;5113909;28;20084;-35
2023/02/17 01:32:49;;;;;;;4.63;2.90;;;;;;;;;;5113872;27;20115;-34
2023/02/17 01:35:15;;;;;;;4.88;2.53;;;;;;;;;;5113508;28;20047;-36
2023/02/17 01:37:41;;;;;;;5.18;3.03;;;;;;;;;;5114187;28;20027;-36
2023/02/17 01:40:07;;;;;;;4.43;2.53;;;;;;;;;;5112571;28;20027;-37
2023/02/17 01:42:33;;;;;;;4.55;2.85;;;;;;;;;;5113325;28;20502;-39
2023/02/17 01:45:18;;;;;;;4.95;2.83;;;;;;;;;;5113796;28;20151;-36
2023/02/17 01:47:45;;;;;;;5.40;3.10;;;;;;;;;;5113580;28;20401;-39
2023/02/17 01:50:11;;;;;;;4.22;2.50;;;;;;;;;;5113520;28;20106;-39
2023/02/17 01:52:37;;;;;;;4.00;2.70;;;;;;;;;;5113799;28;20023;-41
2023/02/17 01:55:07;;;;;;;5.32;2.78;;;;;;;;;;5113300;28;20019;-32
2023/02/17 01:57:35;;;;;;;5.07;2.80;;;;;;;;;;5111787;28;20089;-31
2023/02/17 02:00:02;;;;;;;3.85;2.63;;;;;;;;;;5112872;28;20031;-31
2023/02/17 02:02:29;;;;;;;4.45;2.60;;;;;;;;;;5113141;28;20024;-37
2023/02/17 02:04:56;;;;;;;4.40;2.45;;;;;;;;;;5113250;28;20404;-31
2023/02/17 02:07:30;;;;;;;4.78;2.63;;;;;;;;;;5112959;28;20088;-33
2023/02/17 02:09:56;;;;;;;3.10;2.33;;;;;;;;;;5112888;28;20540;-32
2023/02/17 02:12:30;;;;;;;3.42;2.30;;;;;;;;;;5113092;28;20020;-35
2023/02/17 02:15:01;;;;;;;5.60;2.50;;;;;;;;;;5113096;28;20501;-33
2023/02/17 02:17:45;;;;;;;3.72;2.20;;;;;;;;;;5112765;28;20080;-36
2023/02/17 02:20:37;;;;;;;3.72;2.40;;;;;;;;;;5112895;28;20039;-32
2023/02/17 02:23:16;;;;;;;4.45;2.55;;;;;;;;;;5111061;28;20059;-32
2023/02/17 02:25:48;;;;;;;6.55;3.40;;;;;;;;;;5112660;28;20430;-34
2023/02/17 02:28:32;;;;;;;6.75;3.33;;;;;;;;;;5112631;28;20516;-41
2023/02/17 02:31:01;;;;;;;5.65;2.85;;;;;;;;;;5112579;28;20031;-39
2023/02/17 02:33:33;;;;;;;7.28;3.08;;;;;;;;;;5112796;28;20035;-41
2023/02/17 02:36:14;;;;;;;7.47;3.08;;;;;;;;;;5112564;28;20026;-34
2023/02/17 02:38:42;;;;;;;6.78;2.90;;;;;;;;;;5112671;28;20527;-37
2023/02/17 02:41:14;;;;;;;4.78;2.80;;;;;;;;;;5112450;28;20039;-38
2023/02/17 02:43:41;;;;;;;5.85;2.60;;;;;;;;;;5112295;28;20028;-33
2023/02/17 02:46:07;;;;;;;4.70;2.83;;;;;;;;;;5112032;28;20088;-35
2023/02/17 02:48:33;;;;;;;4.95;3.22;;;;;;;;;;5112406;28;20028;-32
2023/02/17 02:51:03;;;;;;;5.30;2.80;;;;;;;;;;5112483;28;20493;-33
2023/02/17 02:53:49;;;;;;;8.20;3.30;;;;;;;;;;5112677;28;20049;-32
2023/02/17 02:56:24;;;;;;;4.32;2.60;;;;;;;;;;5112298;28;20505;-32
2023/02/17 02:59:09;;;;;;;6.68;3.00;;;;;;;;;;5111992;28;20110;-32
2023/02/17 03:01:43;;;;;;;4.07;2.25;;;;;;;;;;5112090;28;20024;-34
2023/02/17 03:04:19;;;;;;;3.63;2.50;;;;;;;;;;5112938;28;20445;-32
2023/02/17 03:06:48;;;;;;;5.18;2.75;;;;;;;;;;5112003;28;20020;-32
2023/02/17 03:09:17;;;;;;;7.10;2.80;;;;;;;;;;5110696;28;20065;-33
2023/02/17 03:11:43;;;;;;;4.82;2.50;;;;;;;;;;5111020;28;20058;-32
2023/02/17 03:14:17;;;;;;;4.65;2.53;;;;;;;;;;5111685;28;20080;-33
2023/02/17 03:16:43;;;;;;;4.95;2.83;;;;;;;;;;5111809;28;20023;-36
2023/02/17 03:19:10;;;;;;;5.10;2.70;;;;;;;;;;5111933;28;20024;-34
2023/02/17 03:21:43;;;;;;;5.78;2.97;;;;;;;;;;5110531;28;20024;-32
2023/02/17 03:24:09;;;;;;;4.85;3.03;;;;;;;;;;5111822;28;20055;-36
2023/02/17 03:26:35;;;;;;;4.70;2.47;;;;;;;;;;5111568;28;20027;-35
2023/02/17 03:29:01;;;;;;;4.82;2.80;;;;;;;;;;5111879;28;20028;-36
2023/02/17 03:31:27;;;;;;;3.60;2.40;;;;;;;;;;5111759;28;20378;-40
2023/02/17 03:33:53;;;;;;;3.85;2.45;;;;;;;;;;5111653;28;20019;-33
2023/02/17 03:36:19;;;;;;;3.42;2.53;;;;;;;;;;5111656;28;20580;-32
2023/02/17 03:38:45;;;;;;;4.63;2.70;;;;;;;;;;5111930;28;20035;-33
2023/02/17 03:41:11;;;;;;;6.45;2.55;;;;;;;;;;5111738;28;20336;-32
2023/02/17 03:43:37;;;;;;;4.25;2.47;;;;;;;;;;5111742;28;20392;-33
2023/02/17 03:46:03;;;;;;;5.00;2.60;;;;;;;;;;5110069;28;20023;-31
2023/02/17 03:48:29;;;;;;;3.90;2.10;;;;;;;;;;5111806;28;20114;-32
2023/02/17 03:50:56;;;;;;;4.68;2.50;;;;;;;;;;5110504;28;20712;-33
2023/02/17 03:53:22;;;;;;;5.60;2.90;;;;;;;;;;5112040;28;20031;-31
2023/02/17 03:55:48;;;;;;;5.22;2.47;;;;;;;;;;5111432;28;20024;-38
2023/02/17 03:58:14;;;;;;;4.55;2.85;;;;;;;;;;5111376;28;20024;-39
2023/02/17 04:00:40;;;;;;;4.82;2.45;;;;;;;;;;5110035;28;20028;-38
2023/02/17 04:03:06;;;;;;;5.05;2.33;;;;;;;;;;5110376;28;20429;-41
2023/02/17 04:05:32;;;;;;;4.70;2.38;;;;;;;;;;5111395;28;20073;-37
2023/02/17 04:07:58;;;;;;;4.28;2.42;;;;;;;;;;5111335;28;20477;-39
2023/02/17 04:10:24;;;;;;;2.78;1.75;;;;;;;;;;5111695;28;20055;-40
2023/02/17 04:12:50;;;;;;;3.72;2.20;;;;;;;;;;5111406;28;20023;-39
2023/02/17 04:15:16;;;;;;;4.95;2.55;;;;;;;;;;5109636;28;20072;-40
2023/02/17 04:17:42;;;;;;;4.05;2.40;;;;;;;;;;5111034;28;20051;-37
2023/02/17 04:20:08;;;;;;;3.75;2.38;;;;;;;;;;5111402;28;20103;-41
2023/02/17 04:22:34;;;;;;;5.10;2.42;;;;;;;;;;5111866;28;20385;-40
2023/02/17 04:25:00;;;;;;;3.55;2.28;;;;;;;;;;5115395;28;20027;-38
2023/02/17 04:27:26;;;;;;;4.82;2.55;;;;;;;;;;5115267;28;20119;-39
2023/02/17 04:29:53;;;;;;;4.45;2.80;;;;;;;;;;5115409;28;20027;-38
2023/02/17 04:32:19;;;;;;;3.72;2.75;;;;;;;;;;5114898;28;20039;-39
2023/02/17 04:34:45;;;;;;;3.45;2.50;;;;;;;;;;5114848;28;20030;-37
2023/02/17 04:37:11;;;;;;;4.43;2.60;;;;;;;;;;5114657;28;20024;-39
2023/02/17 04:39:37;;;;;;;4.20;2.30;;;;;;;;;;5114734;28;20023;-38
2023/02/17 04:42:03;;;;;;;2.95;2.20;;;;;;;;;;5114591;28;20138;-34
2023/02/17 04:44:29;;;;;;;3.35;2.28;;;;;;;;;;5114877;28;20076;-33
2023/02/17 04:46:55;;;;;;;3.65;2.40;;;;;;;;;;5115057;28;20027;-35
2023/02/17 04:49:21;;;;;;;5.28;2.20;;;;;;;;;;5114866;28;20030;-32
2023/02/17 04:51:47;;;;;;;3.50;2.38;;;;;;;;;;5115170;27;20466;-32
2023/02/17 04:54:13;;;;;;;3.80;2.15;;;;;;;;;;5113327;28;20020;-32
2023/02/17 04:56:39;;;;;;;3.97;2.53;;;;;;;;;;5112985;28;20026;-31
2023/02/17 04:59:05;;;;;;;3.63;2.03;;;;;;;;;;5113151;28;20027;-32
2023/02/17 05:01:31;;;;;;;3.17;2.05;;;;;;;;;;5113387;28;20503;-31
2023/02/17 05:03:57;;;;;;;3.30;2.38;;;;;;;;;;5114531;28;20019;-32
2023/02/17 05:06:23;;;;;;;4.18;2.50;;;;;;;;;;5114079;28;20020;-32
2023/02/17 05:08:49;;;;;;;3.92;2.08;;;;;;;;;;5114360;28;20575;-35
2023/02/17 05:11:15;;;;;;;3.63;2.30;;;;;;;;;;5114163;28;20019;-36
2023/02/17 05:13:42;;;;;;;7.57;2.60;;;;;;;;;;5114299;28;20024;-35
2023/02/17 05:16:08;;;;;;;4.30;2.28;;;;;;;;;;5114146;28;20024;-31
2023/02/17 05:18:34;;;;;;;3.60;2.22;;;;;;;;;;5114495;28;20111;-37
2023/02/17 05:21:00;;;;;;;3.90;2.55;;;;;;;;;;5113906;28;20274;-39
2023/02/17 05:23:26;;;;;;;2.83;2.10;;;;;;;;;;5113920;28;20027;-33
2023/02/17 05:25:52;;;;;;;4.70;2.08;;;;;;;;;;5113791;28;20016;-36
2023/02/17 05:28:18;;;;;;;3.75;2.50;;;;;;;;;;5114170;28;20039;-37
2023/02/17 05:30:44;;;;;;;6.55;2.40;;;;;;;;;;5113739;28;20410;-37
2023/02/17 05:33:10;;;;;;;3.33;2.17;;;;;;;;;;5113972;28;20016;-37
2023/02/17 05:35:36;;;;;;;2.72;2.10;;;;;;;;;;5112732;28;20019;-38
2023/02/17 05:38:02;;;;;;;2.75;1.73;;;;;;;;;;5113602;27;20031;-38
2023/02/17 05:40:28;;;;;;;3.65;2.15;;;;;;;;;;5113712;28;20502;-41
2023/02/17 05:42:54;;;;;;;3.97;2.38;;;;;;;;;;5113773;28;20027;-39
2023/02/17 05:45:20;;;;;;;4.35;2.50;;;;;;;;;;5113658;28;20015;-37
2023/02/17 05:47:46;;;;;;;4.82;2.38;;;;;;;;;;5113235;28;20439;-40
2023/02/17 05:50:12;;;;;;;2.95;2.35;;;;;;;;;;5113252;28;20114;-40
2023/02/17 05:52:38;;;;;;;4.13;2.42;;;;;;;;;;5113433;28;20087;-40
2023/02/17 05:55:04;;;;;;;2.70;2.22;;;;;;;;;;5113476;28;20019;-41
2023/02/17 05:57:30;;;;;;;4.30;2.20;;;;;;;;;;5113291;28;20507;-41
2023/02/17 05:59:56;;;;;;;5.82;2.53;;;;;;;;;;5113237;28;20042;-40
2023/02/17 06:02:22;;;;;;;3.22;2.17;;;;;;;;;;5113765;28;20035;-40
2023/02/17 06:04:48;;;;;;;3.40;2.10;;;;;;;;;;5113278;27;20031;-36
2023/02/17 06:07:14;;;;;;;3.92;2.42;;;;;;;;;;5112911;28;20084;-36
2023/02/17 06:09:40;;;;;;;4.03;2.17;;;;;;;;;;5113489;28;20023;-38
2023/02/17 06:12:06;;;;;;;4.57;2.35;;;;;;;;;;5113030;28;20020;-40
2023/02/17 06:14:32;;;;;;;5.05;2.15;;;;;;;;;;5113037;28;20418;-40
2023/02/17 06:16:59;;;;;;;3.70;2.05;;;;;;;;;;5112279;28;20031;-36
2023/02/17 06:19:25;;;;;;;3.50;1.90;;;;;;;;;;5111456;28;20382;-40
2023/02/17 06:21:51;;;;;;;4.68;2.38;;;;;;;;;;5112735;27;20019;-38
2023/02/17 06:24:17;;;;;;;3.95;2.47;;;;;;;;;;5112796;28;20102;-39
2023/02/17 06:26:43;;;;;;;2.85;2.10;;;;;;;;;;5111223;28;20027;-40
2023/02/17 06:29:09;;;;;;;4.90;2.58;;;;;;;;;;5112801;28;20424;-37
2023/02/17 06:31:35;;;;;;;3.25;2.10;;;;;;;;;;5112927;28;20026;-37
2023/02/17 06:34:01;;;;;;;2.90;2.10;;;;;;;;;;5112840;28;20028;-36
2023/02/17 06:36:27;;;;;;;3.17;2.20;;;;;;;;;;5112668;28;20020;-41
2023/02/17 06:38:53;;;;;;;3.78;2.22;;;;;;;;;;5112606;28;20031;-39
2023/02/17 06:41:19;;;;;;;4.68;2.38;;;;;;;;;;5111263;28;20618;-41
2023/02/17 06:43:45;;;;;;;6.07;2.42;;;;;;;;;;5112634;28;20038;-39
2023/02/17 06:46:11;;;;;;;5.28;2.40;;;;;;;;;;5112135;28;20084;-37
2023/02/17 06:48:37;;;;;;;4.35;2.70;;;;;;;;;;5110891;28;20454;-36
2023/02/17 06:51:03;;;;;;;3.38;2.20;;;;;;;;;;5112247;28;20031;-36
2023/02/17 06:53:29;;;;;;;2.80;2.08;;;;;;;;;;5112289;28;20043;-37
2023/02/17 06:55:55;;;;;;;3.47;2.13;;;;;;;;;;5112028;28;20482;-36
2023/02/17 06:58:21;;;;;;;4.97;2.20;;;;;;;;;;5112099;28;20027;-36
2023/02/17 07:00:47;;;;;;;4.28;2.40;;;;;;;;;;5111860;28;20134;-38
2023/02/17 07:03:13;;;;;;;3.92;2.05;;;;;;;;;;5112149;28;20030;-35
2023/02/17 07:05:39;;;;;;;4.05;2.40;;;;;;;;;;5111991;28;20073;-36
2023/02/17 07:08:06;;;;;;;4.03;2.20;;;;;;;;;;5111685;28;20028;-35
2023/02/17 07:10:32;;;;;;;4.10;2.53;;;;;;;;;;5111958;28;20106;-33
2023/02/17 07:12:58;;;;;;;2.47;2.17;;;;;;;;;;5111900;28;20104;-34
2023/02/17 07:15:24;;;;;;;3.97;2.03;;;;;;;;;;5111514;28;20051;-36
2023/02/17 07:17:50;;;;;;;4.18;2.30;;;;;;;;;;5111863;28;20061;-37
2023/02/17 07:20:16;;;;;;;4.22;2.20;;;;;;;;;;5111781;28;20024;-38
2023/02/17 07:22:42;;;;;;;4.43;2.40;;;;;;;;;;5111836;28;20035;-35
2023/02/17 07:25:08;;;;;;;3.03;2.08;;;;;;;;;;5111671;28;20020;-34
2023/02/17 07:27:35;;;;;;;3.85;2.20;;;;;;;;;;5111528;28;20027;-41
2023/02/17 07:30:01;;;;;;;3.03;2.13;;;;;;;;;;5111762;28;20031;-41
2023/02/17 07:32:27;;;;;;;3.38;1.90;;;;;;;;;;5110462;28;20030;-33
2023/02/17 07:34:53;;;;;;;3.25;1.80;;;;;;;;;;5111833;28;20032;-33
2023/02/17 07:37:20;;;;;;;4.00;2.03;;;;;;;;;;5111589;28;20109;-35
2023/02/17 07:39:47;;;;;;;3.47;2.08;;;;;;;;;;5110330;28;20084;-35
2023/02/17 07:42:13;;;;;;;3.35;2.00;;;;;;;;;;5111545;28;20030;-36
2023/02/17 07:44:39;;;;;;;3.30;2.10;;;;;;;;;;5111742;28;20028;-35
2023/02/17 07:47:05;;;;;;;3.35;2.05;;;;;;;;;;5109968;28;20499;-36
2023/02/17 07:49:31;;;;;;;2.72;2.10;;;;;;;;;;5111667;28;20057;-37
2023/02/17 07:51:57;;;;;;;3.40;2.08;;;;;;;;;;5111375;28;20020;-36
2023/02/17 07:54:23;;;;;;;3.10;2.08;;;;;;;;;;5111491;28;20024;-35
2023/02/17 07:56:49;;;;;;;5.15;2.20;;;;;;;;;;5111321;28;20338;-32
2023/02/17 07:59:15;;;;;;;2.55;1.95;;;;;;;;;;5114582;28;20057;-32
2023/02/17 08:01:41;;;;;;;5.30;1.90;;;;;;;;;;5114385;28;20019;-33
2023/02/17 08:04:07;;;;;;;2.72;2.00;;;;;;;;;;5115556;28;20047;-33
2023/02/17 08:06:33;;;;;;;5.50;2.00;;;;;;;;;;5115158;28;20066;-32
2023/02/17 08:14:30;;;;;;;2.97;2.30;;;;;;;;;;5115590;28;20062;-35
2023/02/17 08:16:56;;;;;;;3.35;1.90;;;;;;;;;;5115022;28;20024;-34
2023/02/17 08:19:22;;;;;;;2.75;1.92;;;;;;;;;;5115053;28;20016;-36
2023/02/17 08:21:48;;;;;;;3.63;1.85;;;;;;;;;;5115010;28;20062;-32
2023/02/17 08:24:15;;;;;;;3.15;2.35;;;;;;;;;;5113773;28;20034;-34
2023/02/17 08:26:41;;;;;;;3.75;2.08;;;;;;;;;;5114867;28;20111;-33
2023/02/17 08:29:07;;;;;;;3.75;2.20;;;;;;;;;;5114871;28;20032;-34
2023/02/17 08:31:34;;;;;;;2.85;1.85;;;;;;;;;;5115385;28;20381;-31
2023/02/17 08:34:01;;;;;;;2.92;1.83;;;;;;;;;;5114860;28;20458;-33
2023/02/17 08:36:27;;;;;;;2.50;1.80;;;;;;;;;;5114846;28;20020;-35
2023/02/17 08:38:54;;;;;;;4.10;2.13;;;;;;;;;;5115192;28;20020;-35
2023/02/17 08:41:22;;;;;;;4.45;2.03;;;;;;;;;;5114726;28;20027;-34
2023/02/17 08:43:48;;;;;;;3.03;2.00;;;;;;;;;;5114785;28;20024;-35
2023/02/17 08:46:15;;;;;;;3.78;2.10;;;;;;;;;;5114387;28;20028;-34
2023/02/17 08:48:41;;;;;;;3.00;2.03;;;;;;;;;;5114465;28;20031;-33
2023/02/17 08:51:07;;;;;;;2.78;1.90;;;;;;;;;;5114519;28;20453;-36
2023/02/17 08:53:34;;;;;;;3.38;1.80;;;;;;;;;;5114733;28;20469;-35
2023/02/17 08:56:00;;;;;;;2.60;2.05;;;;;;;;;;5114340;28;20103;-39
2023/02/17 08:58:26;;;;;;;3.78;1.92;;;;;;;;;;5114398;28;20107;-36
2023/02/17 09:00:52;;;;;;;3.13;2.08;;;;;;;;;;5114230;28;20031;-37
2023/02/17 09:03:18;;;;;;;3.55;2.05;;;;;;;;;;5114287;28;20036;-34
2023/02/17 09:05:44;;;;;;;2.95;2.10;;;;;;;;;;5112766;28;20505;-40
2023/02/17 09:08:10;;;;;;;4.47;2.15;;;;;;;;;;5112765;28;20107;-34
2023/02/17 09:10:37;;;;;;;3.10;1.80;;;;;;;;;;5112974;27;20118;-31
2023/02/17 09:13:03;;;;;;;3.92;1.80;;;;;;;;;;5113970;27;20058;-35
2023/02/17 09:15:29;;;;;;;3.60;2.28;;;;;;;;;;5114080;28;20055;-34
2023/02/17 09:17:55;;;;;;;6.75;2.35;;;;;;;;;;5113795;28;20062;-33
2023/02/17 09:20:21;;;;;;;6.78;2.30;;;;;;;;;;5114121;28;20028;-34
2023/02/17 09:22:47;;;;;;;4.97;2.65;;;;;;;;;;5114041;28;20106;-33
2023/02/17 09:25:13;;;;;;;3.80;2.33;;;;;;;;;;5114263;28;20059;-34
2023/02/17 09:27:39;;;;;;;5.38;2.55;;;;;;;;;;5113628;28;20067;-34
2023/02/17 09:30:05;;;;;;;5.72;2.42;;;;;;;;;;5113641;28;20024;-35
2023/02/17 09:32:31;;;;;;;3.53;2.50;;;;;;;;;;5114088;28;20048;-33
2023/02/17 09:35:00;;;;;;;5.72;2.63;;;;;;;;;;5113814;28;20028;-36
2023/02/17 09:37:26;;;;;;;5.10;2.47;;;;;;;;;;5112151;28;20023;-32
2023/02/17 09:39:52;;;;;;;4.28;2.70;;;;;;;;;;5113675;28;20027;-42
2023/02/17 09:42:20;;;;;;;4.35;2.63;;;;;;;;;;5113571;28;20026;-43
2023/02/17 09:44:50;;;;;;;4.88;2.50;;;;;;;;;;5113337;28;20400;-42
2023/02/17 09:47:18;;;;;;;5.30;2.60;;;;;;;;;;5113451;28;20545;-42
2023/02/17 09:49:50;;;;;;;3.13;1.98;;;;;;;;;;5113414;28;20397;-41
2023/02/17 09:52:28;;;;;;;4.50;2.15;;;;;;;;;;5111989;28;20048;-42
2023/02/17 09:55:00;;;;;;;5.13;2.50;;;;;;;;;;5113277;28;20114;-41
2023/02/17 09:57:29;;;;;;;3.03;2.05;;;;;;;;;;5112950;28;20027;-39
2023/02/17 09:59:58;;;;;;;3.47;2.08;;;;;;;;;;5113041;28;20039;-41
2023/02/17 10:02:31;;;;;;;3.47;2.15;;;;;;;;;;5113195;28;20027;-40
2023/02/17 10:05:00;;;;;;;3.30;2.08;;;;;;;;;;5113046;27;20036;-42
2023/02/17 10:07:39;;;;;;;3.50;2.08;;;;;;;;;;5112822;28;20405;-40
2023/02/17 10:10:07;;;;;;;4.60;1.88;;;;;;;;;;5112907;28;20035;-43
2023/02/17 10:12:37;;;;;;;4.53;2.22;;;;;;;;;;5112972;28;20047;-43
2023/02/17 10:15:24;;;;;;;4.80;1.92;;;;;;;;;;5111573;28;20046;-42
2023/02/17 10:18:02;;;;;;;3.20;1.90;;;;;;;;;;5112797;28;20024;-43
2023/02/17 10:20:32;;;;;;;3.33;2.17;;;;;;;;;;5112527;28;20031;-42
2023/02/17 10:23:06;;;;;;;3.47;2.00;;;;;;;;;;5112839;28;20026;-43
2023/02/17 10:25:44;;;;;;;4.18;1.80;;;;;;;;;;5112730;28;20026;-40
2023/02/17 10:28:15;;;;;;;3.35;1.92;;;;;;;;;;5112688;28;20034;-42
2023/02/17 10:30:41;;;;;;;4.13;1.98;;;;;;;;;;5112611;28;20058;-40
2023/02/17 10:33:13;;;;;;;3.72;2.25;;;;;;;;;;5111462;28;20054;-39
2023/02/17 10:35:49;;;;;;;3.45;1.70;;;;;;;;;;5112724;28;20490;-37
2023/02/17 10:38:15;;;;;;;4.18;1.75;;;;;;;;;;5112378;28;20027;-43
2023/02/17 10:40:41;;;;;;;2.90;1.95;;;;;;;;;;5112369;28;20030;-41
2023/02/17 10:43:09;;;;;;;5.13;1.92;;;;;;;;;;5112236;27;20026;-42
2023/02/17 10:45:36;;;;;;;2.92;1.80;;;;;;;;;;5112286;28;20032;-42
2023/02/17 10:48:04;;;;;;;3.97;1.92;;;;;;;;;;5112203;28;20028;-39
2023/02/17 10:50:30;;;;;;;3.88;1.80;;;;;;;;;;5112188;28;20019;-43
2023/02/17 10:52:56;;;;;;;3.80;1.80;;;;;;;;;;5112107;28;20016;-40
2023/02/17 10:55:38;;;;;;;3.63;1.65;;;;;;;;;;5112075;28;20080;-41
2023/02/17 10:58:18;;;;;;;2.53;1.30;;;;;;;;;;5112341;28;20097;-38
2023/02/17 11:00:47;;;;;;;4.50;1.45;;;;;;;;;;5110975;28;20035;-40
2023/02/17 11:03:20;;;;;;;3.28;1.50;;;;;;;;;;5112208;28;20474;-40
2023/02/17 11:05:53;;;;;;;3.33;1.40;;;;;;;;;;5112108;28;20098;-43
2023/02/17 11:08:33;;;;;;;2.75;1.45;;;;;;;;;;5111852;28;20031;-41
2023/02/17 11:11:01;;;;;;;1.92;1.10;;;;;;;;;;5110605;28;20333;-42
2023/02/17 11:13:33;;;;;;;2.67;1.42;;;;;;;;;;5112031;28;20077;-42
2023/02/17 11:15:59;;;;;;;1.65;1.10;;;;;;;;;;5111625;28;20024;-43
2023/02/17 11:18:28;;;;;;;2.13;1.00;;;;;;;;;;5111882;28;20023;-43
2023/02/17 11:21:08;;;;;;;4.60;1.30;;;;;;;;;;5111981;28;20374;-41
2023/02/17 11:23:34;;;;;;;2.15;1.17;;;;;;;;;;5112394;28;20035;-42
2023/02/17 11:26:11;;;;;;;2.80;1.00;;;;;;;;;;5111667;28;20032;-41
2023/02/17 11:28:37;;;;;;;1.77;1.00;;;;;;;;;;5111883;28;20050;-43
2023/02/17 11:31:05;;;;;;;1.55;0.93;;;;;;;;;;5111897;28;20385;-43
2023/02/17 11:33:36;;;;;;;1.48;1.10;;;;;;;;;;5110935;28;20024;-38
2023/02/17 11:36:03;;;;;;;2.03;0.98;;;;;;;;;;5111486;28;20030;-42
2023/02/17 11:38:41;;;;;;;2.72;1.10;;;;;;;;;;5111999;28;20558;-43
2023/02/17 11:41:07;;;;;;;1.63;0.93;;;;;;;;;;5111854;28;20028;-43
2023/02/17 11:43:34;;;;;;;2.42;1.05;;;;;;;;;;5111751;28;20028;-43
2023/02/17 11:46:04;;;;;;;1.42;0.90;;;;;;;;;;5111738;28;20030;-37
2023/02/17 11:48:49;;;;;;;4.55;0.90;;;;;;;;;;5111662;28;20030;-40
2023/02/17 11:51:15;;;;;;;;;;;;;;;;;;5111985;28;20019;-42
2023/02/17 11:53:41;;;;;;;1.70;0.90;;;;;;;;;;5111435;28;20274;-43
2023/02/17 11:56:10;;;;;;;1.90;1.30;;;;;;;;;;5111334;28;20024;-41
2023/02/17 11:58:52;;;;;;;4.25;1.25;;;;;;;;;;5111263;28;20051;-43
2023/02/17 12:01:24;;;;;;;2.95;1.60;;;;;;;;;;5111426;28;20036;-43
2023/02/17 12:04:09;;;;;;;1.52;1.05;;;;;;;;;;5111529;28;20024;-42
2023/02/17 12:06:35;;;;;;;5.05;1.23;;;;;;;;;;5111725;28;20134;-40
2023/02/17 12:09:13;;;;;;;3.20;1.38;;;;;;;;;;5111158;28;20031;-41
2023/02/17 12:11:48;;;;;;;1.50;1.17;;;;;;;;;;5111707;28;20030;-39
2023/02/17 12:14:33;;;;;;;1.48;1.10;;;;;;;;;;5111632;28;20036;-43
2023/02/17 12:17:05;;;;;;;1.90;1.20;;;;;;;;;;5111068;28;20024;-43
2023/02/17 12:19:49;;;;;;;4.03;1.15;;;;;;;;;;5111321;28;20123;-43
2023/02/17 12:22:20;;;;;;;2.70;1.10;;;;;;;;;;5111375;28;20035;-43
2023/02/17 12:25:05;;;;;;;1.92;1.27;;;;;;;;;;5111181;28;20016;-42
2023/02/17 12:27:31;;;;;;;;;;;;;;;;;;5111348;28;20553;-33
2023/02/17 12:30:16;;;;;;;1.30;1.00;;;;;;;;;;5111260;28;20014;-36
2023/02/17 12:32:42;;;;;;;;;;;;;;;;;;5111576;28;20094;-35
2023/02/17 12:35:18;;;;;;;1.98;1.20;;;;;;;;;;5109821;28;20365;-32
2023/02/17 12:37:50;;;;;;;1.48;1.08;;;;;;;;;;5111152;28;20035;-33
2023/02/17 12:40:24;;;;;;;2.15;1.25;;;;;;;;;;5111133;28;20026;-36
2023/02/17 12:42:55;;;;;;;2.08;1.00;;;;;;;;;;5111150;28;20117;-33
2023/02/17 12:45:27;;;;;;;2.17;1.00;;;;;;;;;;5114072;28;20166;-33
2023/02/17 12:47:57;;;;;;;1.40;0.93;;;;;;;;;;5114464;28;20024;-34
2023/02/17 12:50:29;;;;;;;2.72;1.13;;;;;;;;;;5114633;28;20023;-32
2023/02/17 12:52:58;;;;;;;1.33;0.90;;;;;;;;;;5113466;28;20065;-34
2023/02/17 12:55:27;;;;;;;1.38;0.95;;;;;;;;;;5114466;28;20020;-33
2023/02/17 12:57:57;;;;;;;1.67;0.90;;;;;;;;;;5114324;28;20019;-35
2023/02/17 13:00:40;;;;;;;1.58;0.90;;;;;;;;;;5114250;28;20031;-36
2023/02/17 13:03:07;;;;;;;1.70;1.00;;;;;;;;;;5114392;28;20024;-33
2023/02/17 13:05:53;;;;;;;1.73;1.00;;;;;;;;;;5114424;28;20299;-34
2023/02/17 13:08:33;;;;;;;3.10;1.00;;;;;;;;;;5092532;28;20079;-39
2023/02/17 13:11:00;;;;;;;2.60;0.95;;;;;;;;;;5114435;28;20027;-36
2023/02/17 13:13:28;;;;;;;1.58;1.10;;;;;;;;;;5114097;28;20024;-33
2023/02/17 13:16:01;;;;;;;1.60;1.17;;;;;;;;;;5113891;28;20027;-35
2023/02/17 13:18:29;;;;;;;2.35;1.10;;;;;;;;;;5114057;28;20032;-35
2023/02/17 13:20:54;;;;;;;1.55;1.02;;;;;;;;;;5114118;28;20024;-32
2023/02/17 13:23:33;;;;;;;2.45;1.15;;;;;;;;;;5114036;28;20465;-34
2023/02/17 13:26:15;;;;;;;2.78;1.10;;;;;;;;;;5113799;28;20012;-33
2023/02/17 13:28:42;;;;;;;2.33;1.20;;;;;;;;;;5113893;27;20024;-33
2023/02/17 13:31:13;;;;;;;3.08;1.10;;;;;;;;;;5114008;28;20019;-37
2023/02/17 13:33:40;;;;;;;1.05;0.77;;;;;;;;;;5113872;28;20030;-34
2023/02/17 13:36:19;;;;;;;2.25;1.02;;;;;;;;;;5113611;28;20385;-35
2023/02/17 13:38:54;;;;;;;1.27;0.90;;;;;;;;;;5113465;28;20020;-35
2023/02/17 13:41:20;;;;;;;1.55;1.10;;;;;;;;;;5113680;28;20043;-36
2023/02/17 13:43:46;;;;;;;1.13;0.75;;;;;;;;;;5114020;28;20104;-38
2023/02/17 13:46:18;;;;;;;0.90;0.80;;;;;;;;;;5113528;28;20556;-35
2023/02/17 13:48:44;;;;;;;1.75;0.93;;;;;;;;;;5112214;28;20102;-33
2023/02/17 13:51:24;;;;;;;1.38;0.90;;;;;;;;;;5113386;28;20020;-32
2023/02/17 13:53:50;;;;;;;2.65;0.90;;;;;;;;;;5113645;28;20031;-34
2023/02/17 13:56:29;;;;;;;1.15;0.85;;;;;;;;;;5112766;28;20016;-36
2023/02/17 13:59:17;;;;;;;1.10;0.80;;;;;;;;;;5113312;28;20027;-35
2023/02/17 14:01:44;;;;;;;1.63;1.02;;;;;;;;;;5113319;28;20034;-36
2023/02/17 14:04:18;;;;;;;2.05;0.80;;;;;;;;;;5113400;28;20024;-33
2023/02/17 14:06:44;;;;;;;1.60;0.80;;;;;;;;;;5113019;28;20039;-33
2023/02/17 14:09:25;;;;;;;1.80;1.02;;;;;;;;;;5113116;27;20537;-32
2023/02/17 14:11:52;;;;;;;1.30;0.80;;;;;;;;;;5112914;28;20020;-33
2023/02/17 14:14:18;;;;;;;0.98;0.75;;;;;;;;;;5112799;28;20449;-36
2023/02/17 14:16:45;;;;;;;1.13;0.80;;;;;;;;;;5112662;28;20023;-34
2023/02/17 14:19:12;;;;;;;1.77;0.90;;;;;;;;;;5113212;28;20102;-36
2023/02/17 14:21:42;;;;;;;1.45;0.85;;;;;;;;;;5113034;28;20089;-36
2023/02/17 14:24:24;;;;;;;2.25;1.00;;;;;;;;;;5112020;27;20031;-34
2023/02/17 14:26:50;;;;;;;1.85;0.90;;;;;;;;;;5111302;28;20478;-32
2023/02/17 14:29:16;;;;;;;1.25;1.00;;;;;;;;;;5112546;28;20439;-34
2023/02/17 14:31:43;;;;;;;2.38;1.08;;;;;;;;;;5112656;28;20020;-32
2023/02/17 14:34:29;;;;;;;1.15;0.90;;;;;;;;;;5112930;28;20089;-34
2023/02/17 14:37:06;;;;;;;1.58;1.00;;;;;;;;;;5112384;28;20055;-32
2023/02/17 14:39:32;;;;;;;1.83;0.80;;;;;;;;;;5112812;28;20030;-33
2023/02/17 14:41:58;;;;;;;1.63;1.15;;;;;;;;;;5112674;28;20028;-32
2023/02/17 14:44:24;;;;;;;1.27;0.90;;;;;;;;;;5112475;28;20075;-32
2023/02/17 14:46:50;;;;;;;1.85;0.90;;;;;;;;;;5112445;28;20024;-34
2023/02/17 14:49:16;;;;;;;1.48;0.98;;;;;;;;;;5112174;28;20491;-36
2023/02/17 14:51:42;;;;;;;2.25;1.02;;;;;;;;;;5111046;28;20119;-32
2023/02/17 14:54:15;;;;;;;1.23;0.90;;;;;;;;;;5112313;28;20060;-33
2023/02/17 14:56:44;;;;;;;1.27;1.00;;;;;;;;;;5112065;27;20055;-34